createdAt,value
2022-09-13T00:02:27.467Z,10.74
2022-09-13T00:04:57.547Z,10.68
2022-09-13T00:07:30.817Z,10.76
2022-09-13T00:09:59.142Z,10.76
2022-09-13T00:12:33.597Z,10.72
2022-09-13T00:15:18.516Z,10.74
2022-09-13T00:18:05.491Z,10.78
2022-09-13T00:20:34.968Z,10.71
2022-09-13T00:23:02.907Z,10.64
2022-09-13T00:25:38.257Z,10.62
2022-09-13T00:30:47.190Z,10.59
2022-09-13T00:33:13.958Z,10.57
2022-09-13T00:35:40.894Z,10.54
2022-09-13T00:38:28.382Z,10.52
2022-09-13T00:41:02.443Z,10.51
2022-09-13T00:44:21.264Z,10.57
2022-09-13T00:47:12.170Z,10.65
2022-09-13T00:49:44.682Z,10.73
2022-09-13T00:52:53.347Z,10.66
2022-09-13T01:02:47.664Z,10.55
2022-09-13T01:05:17.294Z,10.51
2022-09-13T01:07:48.192Z,10.54
2022-09-13T01:10:21.087Z,10.56
2022-09-13T01:13:20.598Z,10.55
2022-09-13T01:15:47.978Z,10.55
2022-09-13T01:18:22.285Z,10.61
2022-09-13T01:27:45.333Z,10.50
2022-09-13T01:30:25.320Z,10.53
2022-09-13T01:33:39.792Z,10.49
2022-09-13T01:37:05.439Z,10.46
2022-09-13T01:40:41.234Z,10.52
2022-09-13T01:43:46.049Z,10.51
2022-09-13T01:46:26.944Z,10.49
2022-09-13T01:49:27.956Z,10.49
2022-09-13T02:02:48.796Z,10.23
2022-09-13T02:05:47.405Z,10.35
2022-09-13T02:08:37.578Z,10.36
2022-09-13T02:11:35.590Z,10.33
2022-09-13T02:14:31.926Z,10.36
2022-09-13T02:17:14.003Z,10.45
2022-09-13T02:19:51.716Z,10.46
2022-09-13T02:25:39.424Z,10.41
2022-09-13T02:28:13.696Z,10.27
2022-09-13T02:30:49.317Z,10.21
2022-09-13T02:33:47.947Z,10.27
2022-09-13T02:36:26.814Z,10.21
2022-09-13T02:39:04.980Z,10.28
2022-09-13T02:41:55.309Z,10.24
2022-09-13T02:48:37.141Z,10.20
2022-09-13T02:58:42.112Z,9.99
2022-09-13T03:04:47.351Z,9.87
2022-09-13T03:10:41.133Z,10.03
2022-09-13T03:13:37.751Z,10.17
2022-09-13T03:16:51.836Z,10.16
2022-09-13T03:23:18.628Z,10.10
2022-09-13T03:26:38.689Z,9.89
2022-09-13T03:29:40.891Z,9.79
2022-09-13T03:32:32.792Z,9.86
2022-09-13T03:35:28.866Z,9.92
2022-09-13T03:38:10.685Z,9.86
2022-09-13T03:40:40.377Z,9.77
2022-09-13T03:43:14.182Z,9.74
2022-09-13T03:46:17.731Z,9.83
2022-09-13T03:48:51.899Z,9.94
2022-09-13T03:57:24.649Z,9.86
2022-09-13T04:10:31.935Z,9.65
2022-09-13T04:23:22.403Z,9.62
2022-09-13T04:26:16.763Z,9.60
2022-09-13T04:28:55.050Z,9.51
2022-09-13T04:31:30.173Z,9.59
2022-09-13T04:40:00.318Z,9.80
2022-09-13T04:46:44.321Z,9.79
2022-09-13T04:49:15.707Z,9.77
2022-09-13T04:51:54.258Z,9.79
2022-09-13T05:01:14.061Z,9.88
2022-09-13T05:03:43.506Z,9.98
2022-09-13T05:09:05.176Z,10.15
2022-09-13T05:14:41.997Z,10.17
2022-09-13T05:28:49.090Z,10.52
2022-09-13T05:31:31.309Z,10.52
2022-09-13T05:34:09.223Z,10.60
2022-09-13T05:36:40.363Z,10.68
2022-09-13T05:39:31.861Z,10.70
2022-09-13T05:42:22.658Z,10.82
2022-09-13T05:44:49.549Z,10.91
2022-09-13T05:47:19.539Z,10.98
2022-09-13T05:50:08.759Z,11.13
2022-09-13T05:52:36.280Z,11.23
2022-09-13T05:57:50.923Z,11.59
2022-09-13T06:00:48.497Z,11.71
2022-09-13T06:03:15.449Z,11.96
2022-09-13T06:05:42.145Z,12.12
2022-09-13T06:08:08.886Z,12.17
2022-09-13T06:10:37.584Z,12.31
2022-09-13T06:13:06.944Z,12.33
2022-09-13T06:15:45.939Z,12.33
2022-09-13T06:18:13.445Z,12.45
2022-09-13T06:20:40.433Z,12.42
2022-09-13T06:23:13.819Z,12.44
2022-09-13T06:25:43.636Z,12.45
2022-09-13T06:28:16.258Z,12.48
2022-09-13T06:30:42.985Z,12.35
2022-09-13T06:33:09.701Z,12.36
2022-09-13T06:35:37.276Z,12.45
2022-09-13T06:38:03.920Z,12.64
2022-09-13T06:40:30.624Z,12.75
2022-09-13T06:42:57.214Z,12.89
2022-09-13T06:45:24.130Z,12.98
2022-09-13T06:47:55.187Z,13.00
2022-09-13T06:50:21.972Z,13.07
2022-09-13T06:52:48.698Z,13.19
2022-09-13T06:55:16.007Z,13.27
2022-09-13T06:57:42.594Z,13.21
2022-09-13T07:00:10.127Z,13.18
2022-09-13T07:02:36.767Z,13.35
2022-09-13T07:05:04.301Z,13.35
2022-09-13T07:07:31.696Z,13.31
2022-09-13T07:09:58.525Z,13.46
2022-09-13T07:12:25.103Z,13.46
2022-09-13T07:25:56.491Z,14.13
2022-09-13T07:28:26.184Z,14.12
2022-09-13T07:30:54.000Z,14.02
2022-09-13T07:33:21.169Z,14.07
2022-09-13T07:35:55.164Z,14.00
2022-09-13T07:38:21.775Z,13.93
2022-09-13T07:40:59.657Z,13.93
2022-09-13T07:43:26.974Z,13.93
2022-09-13T07:46:01.509Z,13.91
2022-09-13T07:48:33.411Z,14.06
2022-09-13T07:51:01.487Z,14.03
2022-09-13T07:53:29.051Z,14.09
2022-09-13T07:56:01.423Z,14.21
2022-09-13T07:58:28.441Z,14.36
2022-09-13T08:00:55.232Z,14.37
2022-09-13T08:03:21.822Z,14.70
2022-09-13T08:05:48.468Z,14.86
2022-09-13T08:08:15.124Z,14.74
2022-09-13T08:10:42.893Z,14.61
2022-09-13T08:13:12.051Z,14.57
2022-09-13T08:15:38.643Z,14.72
2022-09-13T08:18:06.231Z,14.79
2022-09-13T08:20:39.553Z,14.69
2022-09-13T08:23:07.648Z,14.68
2022-09-13T08:25:36.350Z,14.61
2022-09-13T08:28:10.892Z,14.66
2022-09-13T08:30:38.047Z,14.59
2022-09-13T08:33:05.461Z,14.80
2022-09-13T08:35:35.214Z,14.95
2022-09-13T08:38:02.381Z,14.82
2022-09-13T08:40:34.419Z,15.06
2022-09-13T08:43:19.079Z,15.16
2022-09-13T08:46:05.235Z,15.19
2022-09-13T08:48:40.521Z,15.15
2022-09-13T08:51:24.000Z,15.06
2022-09-13T08:53:52.055Z,15.06
2022-09-13T08:56:31.461Z,14.89
2022-09-13T08:59:38.441Z,14.76
2022-09-13T09:02:27.703Z,14.99
2022-09-13T09:05:29.434Z,14.86
2022-09-13T09:08:12.324Z,14.99
2022-09-13T09:10:46.065Z,15.05
2022-09-13T09:13:26.247Z,15.03
2022-09-13T09:15:58.306Z,14.77
2022-09-13T09:18:33.311Z,14.56
2022-09-13T09:21:01.573Z,14.56
2022-09-13T09:23:46.098Z,14.28
2022-09-13T09:26:16.081Z,14.69
2022-09-13T09:28:46.271Z,14.91
2022-09-13T09:31:39.369Z,15.06
2022-09-13T09:34:22.964Z,15.00
2022-09-13T09:37:07.571Z,15.13
2022-09-13T09:39:41.006Z,15.20
2022-09-13T09:42:21.411Z,15.24
2022-09-13T09:45:03.025Z,15.02
2022-09-13T09:47:40.770Z,15.12
2022-09-13T09:50:19.026Z,15.57
2022-09-13T09:52:50.795Z,15.65
2022-09-13T09:55:18.918Z,15.64
2022-09-13T09:57:57.927Z,15.95
2022-09-13T10:00:29.378Z,15.75
2022-09-13T10:03:01.288Z,16.05
2022-09-13T10:05:32.517Z,16.16
2022-09-13T10:08:03.064Z,16.18
2022-09-13T10:10:37.253Z,15.93
2022-09-13T10:13:05.177Z,16.26
2022-09-13T10:15:35.925Z,16.43
2022-09-13T10:18:33.353Z,16.07
2022-09-13T10:21:17.475Z,15.98
2022-09-13T10:23:45.212Z,16.26
2022-09-13T10:26:19.213Z,16.39
2022-09-13T10:29:09.438Z,15.99
2022-09-13T10:31:40.052Z,16.39
2022-09-13T10:34:29.161Z,16.29
2022-09-13T10:37:00.018Z,16.63
2022-09-13T10:39:29.804Z,16.47
2022-09-13T10:42:03.109Z,16.39
2022-09-13T10:44:41.652Z,16.69
2022-09-13T10:47:18.338Z,16.82
2022-09-13T10:49:45.185Z,16.74
2022-09-13T10:52:36.354Z,16.91
2022-09-13T10:55:21.224Z,17.00
2022-09-13T10:57:52.472Z,16.84
2022-09-13T11:00:43.205Z,16.86
2022-09-13T11:06:42.482Z,17.07
2022-09-13T11:09:16.089Z,17.24
2022-09-13T11:12:27.229Z,17.17
2022-09-13T11:15:12.544Z,17.26
2022-09-13T11:18:12.915Z,17.22
2022-09-13T11:20:52.057Z,17.30
2022-09-13T11:23:40.152Z,17.52
2022-09-13T11:26:25.059Z,17.41
2022-09-13T11:28:54.740Z,17.36
2022-09-13T11:31:40.202Z,17.10
2022-09-13T11:34:09.816Z,17.07
2022-09-13T11:36:48.752Z,16.94
2022-09-13T11:39:38.711Z,17.23
2022-09-13T11:42:09.285Z,17.41
2022-09-13T11:44:50.932Z,17.49
2022-09-13T11:47:26.638Z,17.37
2022-09-13T11:50:04.100Z,17.57
2022-09-13T11:52:36.629Z,17.64
2022-09-13T11:55:14.159Z,17.81
2022-09-13T11:57:52.168Z,17.79
2022-09-13T12:00:23.513Z,17.72
2022-09-13T12:03:03.648Z,17.77
2022-09-13T12:05:55.737Z,17.68
2022-09-13T12:08:27.036Z,17.84
2022-09-13T12:10:59.524Z,17.86
2022-09-13T12:13:52.548Z,17.38
2022-09-13T12:16:26.999Z,17.66
2022-09-13T12:18:59.519Z,17.82
2022-09-13T12:21:37.635Z,17.66
2022-09-13T12:24:14.570Z,17.43
2022-09-13T12:26:54.715Z,17.28
2022-09-13T12:29:31.883Z,17.31
2022-09-13T12:32:02.510Z,17.21
2022-09-13T12:34:39.502Z,17.18
2022-09-13T12:37:18.442Z,17.20
2022-09-13T12:40:25.500Z,17.13
2022-09-13T12:42:58.121Z,17.12
2022-09-13T12:45:35.866Z,17.26
2022-09-13T12:48:27.160Z,17.36
2022-09-13T12:51:29.071Z,17.56
2022-09-13T12:54:07.551Z,17.39
2022-09-13T12:56:37.232Z,17.47
2022-09-13T12:59:44.871Z,17.49
2022-09-13T13:02:43.971Z,17.43
2022-09-13T13:05:31.838Z,17.46
2022-09-13T13:08:05.996Z,17.43
2022-09-13T13:10:36.412Z,17.50
2022-09-13T13:13:21.023Z,17.48
2022-09-13T13:15:50.076Z,17.43
2022-09-13T13:18:31.184Z,17.47
2022-09-13T13:20:57.793Z,17.14
2022-09-13T13:23:36.388Z,16.89
2022-09-13T13:26:03.092Z,16.81
2022-09-13T13:28:45.368Z,16.44
2022-09-13T13:31:24.079Z,16.31
2022-09-13T13:33:59.866Z,16.33
2022-09-13T13:36:35.351Z,16.46
2022-09-13T13:39:02.607Z,16.50
2022-09-13T13:41:41.823Z,16.50
2022-09-13T13:44:20.683Z,16.70
2022-09-13T13:46:52.734Z,16.76
2022-09-13T13:49:31.426Z,16.80
2022-09-13T13:52:22.638Z,17.07
2022-09-13T13:54:55.212Z,17.23
2022-09-13T13:57:32.668Z,17.34
2022-09-13T14:00:12.083Z,17.40
2022-09-13T14:02:53.593Z,17.12
2022-09-13T14:05:39.794Z,17.28
2022-09-13T14:08:28.040Z,17.18
2022-09-13T14:11:16.357Z,17.24
2022-09-13T14:13:54.785Z,17.21
2022-09-13T14:16:39.991Z,17.17
2022-09-13T14:19:24.365Z,17.05
2022-09-13T14:22:09.345Z,17.16
2022-09-13T14:24:43.232Z,17.38
2022-09-13T14:27:17.762Z,17.42
2022-09-13T14:29:49.955Z,18.07
2022-09-13T14:32:20.213Z,17.90
2022-09-13T14:35:04.564Z,17.42
2022-09-13T14:37:37.410Z,17.24
2022-09-13T14:40:23.156Z,17.28
2022-09-13T14:42:54.041Z,17.55
2022-09-13T14:45:25.174Z,17.71
2022-09-13T14:48:21.373Z,17.65
2022-09-13T14:50:54.141Z,17.67
2022-09-13T14:53:31.717Z,18.79
2022-09-13T14:56:16.585Z,18.26
2022-09-13T14:58:51.590Z,17.78
2022-09-13T15:01:38.671Z,17.73
2022-09-13T15:04:07.335Z,17.74
2022-09-13T15:06:41.197Z,17.85
2022-09-13T15:09:11.206Z,17.79
2022-09-13T15:12:01.419Z,19.05
2022-09-13T15:14:37.464Z,18.75
2022-09-13T15:17:09.641Z,20.94
2022-09-13T15:19:37.600Z,20.05
2022-09-13T15:22:26.149Z,19.56
2022-09-13T15:24:55.973Z,17.93
2022-09-13T15:27:31.427Z,17.45
2022-09-13T15:30:02.565Z,17.16
2022-09-13T15:32:35.622Z,17.05
2022-09-13T15:35:02.904Z,16.87
2022-09-13T15:37:38.927Z,18.35
2022-09-13T15:40:19.591Z,16.88
2022-09-13T15:42:51.567Z,16.69
2022-09-13T15:45:20.767Z,16.45
2022-09-13T15:47:49.647Z,16.20
2022-09-13T15:50:36.583Z,16.05
2022-09-13T15:53:11.698Z,16.18
2022-09-13T15:55:54.585Z,16.28
2022-09-13T15:58:22.774Z,15.86
2022-09-13T16:00:49.602Z,15.61
2022-09-13T16:03:16.223Z,15.46
2022-09-13T16:05:43.021Z,15.31
2022-09-13T16:08:11.652Z,15.35
2022-09-13T16:10:39.057Z,15.28
2022-09-13T16:13:05.730Z,15.23
2022-09-13T16:15:32.774Z,15.13
2022-09-13T16:17:59.363Z,15.18
2022-09-13T16:20:29.719Z,15.05
2022-09-13T16:22:56.367Z,15.06
2022-09-13T16:25:23.374Z,15.05
2022-09-13T16:27:51.404Z,14.90
2022-09-13T16:30:20.453Z,14.75
2022-09-13T16:32:50.348Z,14.80
2022-09-13T16:35:17.244Z,14.63
2022-09-13T16:37:44.651Z,14.67
2022-09-13T16:40:12.413Z,14.67
2022-09-13T16:42:39.468Z,14.60
2022-09-13T16:45:07.102Z,14.57
2022-09-13T16:47:33.740Z,14.53
2022-09-13T16:50:00.645Z,14.43
2022-09-13T16:52:29.143Z,14.37
2022-09-13T16:54:56.565Z,14.40
2022-09-13T16:57:24.287Z,14.24
2022-09-13T16:59:52.766Z,14.09
2022-09-13T17:02:21.119Z,14.05
2022-09-13T17:04:50.889Z,14.05
2022-09-13T17:07:17.908Z,14.07
2022-09-13T17:09:44.811Z,14.00
2022-09-13T17:12:14.026Z,14.02
2022-09-13T17:14:47.556Z,13.94
2022-09-13T17:17:16.136Z,13.77
2022-09-13T17:19:43.401Z,13.75
2022-09-13T17:22:11.353Z,13.60
2022-09-13T17:24:38.558Z,13.52
2022-09-13T17:27:06.877Z,13.60
2022-09-13T17:29:35.272Z,13.56
2022-09-13T17:32:04.807Z,13.46
2022-09-13T17:34:34.597Z,13.49
2022-09-13T17:37:03.698Z,13.42
2022-09-13T17:39:30.923Z,13.31
2022-09-13T17:41:58.300Z,13.17
2022-09-13T17:44:25.202Z,13.21
2022-09-13T17:46:52.135Z,13.23
2022-09-13T17:49:18.961Z,13.21
2022-09-13T17:51:45.873Z,13.18
2022-09-13T17:54:12.790Z,13.11
2022-09-13T17:56:42.653Z,13.10
2022-09-13T17:59:20.735Z,13.10
2022-09-13T18:01:50.208Z,13.11
2022-09-13T18:04:19.242Z,13.11
2022-09-13T18:06:46.177Z,13.08
2022-09-13T18:09:14.308Z,13.07
2022-09-13T18:11:41.271Z,13.12
2022-09-13T18:14:22.966Z,13.14
2022-09-13T18:16:55.958Z,13.03
2022-09-13T18:19:44.212Z,13.13
2022-09-13T18:22:10.131Z,13.18
2022-09-13T18:24:36.845Z,13.22
2022-09-13T18:27:04.053Z,13.17
2022-09-13T18:29:33.329Z,13.12
2022-09-13T18:32:00.090Z,13.09
2022-09-13T18:34:27.834Z,13.16
2022-09-13T18:36:54.727Z,13.10
2022-09-13T18:39:22.925Z,13.13
2022-09-13T18:41:50.147Z,13.21
2022-09-13T18:44:49.525Z,13.24
2022-09-13T18:47:16.176Z,13.22
2022-09-13T18:49:42.845Z,13.21
2022-09-13T18:52:11.046Z,13.18
2022-09-13T18:54:38.024Z,13.11
2022-09-13T18:57:04.786Z,13.02
2022-09-13T18:59:33.258Z,12.99
2022-09-13T19:02:00.073Z,12.99
2022-09-13T19:04:26.905Z,12.96
2022-09-13T19:06:57.851Z,12.92
2022-09-13T19:09:25.508Z,12.92
2022-09-13T19:11:53.733Z,12.94
2022-09-13T19:14:26.064Z,12.88
2022-09-13T19:16:54.677Z,12.83
2022-09-13T19:19:21.500Z,12.81
2022-09-13T19:21:48.854Z,12.78
2022-09-13T19:24:18.797Z,12.71
2022-09-13T19:26:47.302Z,12.71
2022-09-13T19:29:21.910Z,12.71
2022-09-13T19:31:49.815Z,12.71
2022-09-13T19:34:19.077Z,12.69
2022-09-13T19:36:46.673Z,12.62
2022-09-13T19:39:13.480Z,12.57
2022-09-13T19:41:43.478Z,12.56
2022-09-13T19:44:11.008Z,12.52
2022-09-13T19:46:40.297Z,12.49
2022-09-13T19:49:12.006Z,12.48
2022-09-13T19:51:42.133Z,12.48
2022-09-13T19:54:12.365Z,12.52
2022-09-13T19:56:42.854Z,12.61
2022-09-13T19:59:15.464Z,12.59
2022-09-13T20:01:44.000Z,12.64
2022-09-13T20:04:19.529Z,12.57
2022-09-13T20:06:50.879Z,12.57
2022-09-13T20:09:22.249Z,12.55
2022-09-13T20:11:49.532Z,12.43
2022-09-13T20:14:18.696Z,12.42
2022-09-13T20:16:45.824Z,12.35
2022-09-13T20:22:07.067Z,12.43
2022-09-13T20:24:33.804Z,12.43
2022-09-13T20:27:00.406Z,12.37
2022-09-13T20:29:26.999Z,12.35
2022-09-13T20:31:55.508Z,12.28
2022-09-13T20:34:22.439Z,12.28
2022-09-13T20:36:49.237Z,12.26
2022-09-13T20:39:17.904Z,12.16
2022-09-13T20:41:44.879Z,12.19
2022-09-13T20:44:12.213Z,12.09
2022-09-13T20:46:40.465Z,12.05
2022-09-13T20:49:13.530Z,12.05
2022-09-13T20:51:40.225Z,12.07
2022-09-13T20:54:07.797Z,12.02
2022-09-13T20:56:35.511Z,11.84
2022-09-13T20:59:02.815Z,11.64
2022-09-13T21:01:31.614Z,11.51
2022-09-13T21:04:00.188Z,11.43
2022-09-13T21:06:31.935Z,11.50
2022-09-13T21:09:00.215Z,11.52
2022-09-13T21:11:32.905Z,11.47
2022-09-13T21:14:04.883Z,11.52
2022-09-13T21:16:37.870Z,11.50
2022-09-13T21:19:05.350Z,11.46
2022-09-13T21:21:34.696Z,11.38
2022-09-13T21:24:05.960Z,11.31
2022-09-13T21:26:33.218Z,11.21
2022-09-13T21:29:00.556Z,11.19
2022-09-13T21:31:32.973Z,11.14
2022-09-13T21:34:05.838Z,11.18
2022-09-13T21:36:37.521Z,11.15
2022-09-13T21:39:05.404Z,11.11
2022-09-13T21:41:32.945Z,11.03
2022-09-13T21:43:59.528Z,11.00
2022-09-13T21:46:31.411Z,10.88
2022-09-13T21:49:00.037Z,10.84
2022-09-13T21:51:34.187Z,10.89
2022-09-13T21:54:04.186Z,10.91
2022-09-13T21:56:32.794Z,10.95
2022-09-13T21:59:05.088Z,10.93
2022-09-13T22:01:34.254Z,10.85
2022-09-13T22:04:02.118Z,10.61
2022-09-13T22:06:33.520Z,10.67
2022-09-13T22:09:02.852Z,10.68
2022-09-13T22:11:35.310Z,10.73
2022-09-13T22:14:02.542Z,10.73
2022-09-13T22:16:33.545Z,10.66
2022-09-13T22:19:12.423Z,10.65
2022-09-13T22:21:44.397Z,10.64
2022-09-13T22:24:18.260Z,10.72
2022-09-13T22:26:46.682Z,10.66
2022-09-13T22:29:15.374Z,10.51
2022-09-13T22:31:44.010Z,10.50
2022-09-13T22:34:13.813Z,10.61
2022-09-13T22:36:41.001Z,10.67
2022-09-13T22:39:10.129Z,10.54
2022-09-13T22:41:36.956Z,10.55
2022-09-13T22:44:04.000Z,10.37
2022-09-13T22:46:33.262Z,10.53
2022-09-13T22:49:00.686Z,10.53
2022-09-13T22:51:28.268Z,10.66
2022-09-13T22:53:56.037Z,10.76
2022-09-13T22:56:26.154Z,10.80
2022-09-13T22:58:57.660Z,10.78
2022-09-13T23:01:25.721Z,10.74
2022-09-13T23:03:53.274Z,10.62
2022-09-13T23:06:22.632Z,10.63
2022-09-13T23:08:50.946Z,10.59
2022-09-13T23:11:21.496Z,10.54
2022-09-13T23:13:50.388Z,10.62
2022-09-13T23:16:31.850Z,10.61
2022-09-13T23:18:59.131Z,10.58
2022-09-13T23:21:32.591Z,10.55
2022-09-13T23:24:00.881Z,10.58
2022-09-13T23:26:28.541Z,10.59
2022-09-13T23:28:58.446Z,10.55
2022-09-13T23:31:28.176Z,10.40
2022-09-13T23:33:58.261Z,10.40
2022-09-13T23:36:27.325Z,10.44
2022-09-13T23:38:56.490Z,10.46
2022-09-13T23:41:25.623Z,10.42
2022-09-13T23:43:53.388Z,10.47
2022-09-13T23:46:20.588Z,10.47
2022-09-13T23:48:47.661Z,10.14
2022-09-13T23:51:17.234Z,10.10
2022-09-13T23:53:44.539Z,10.11
2022-09-13T23:56:11.815Z,10.08
2022-09-13T23:58:39.255Z,10.06
